Terminal Aerodrome Forecast
Issued by NWS

Home | Current Version | Previous Version | Text Only | Print | Product List | Glossary On
Versions: 1 2 3 4 5 6 7 8 9 10 11 12
264
FTUS45 KABQ 270529
TAFROW
TAF
KROW 270529Z 2706/2806 27010KT P6SM FEW120
     FM271600 29013KT P6SM SKC
     FM272000 31012KT P6SM SKC=

USA.gov is the U.S. government's official web portal to all federal, state and local government web resources and services.